Clifford, Michigan
Current Conditions -  °F | °C
As of 10:35 AM on Monday 22 Dec 2014 (Local Time) from KCFS Reporting Station
Clear Clear  
Wind Chill: -4°   Ceiling: Unl
Heat Index:   Visibility: 7mi
Dew Point: -4°   Wind: 10mph
Humidity: 74%   Direction: 140°SE
Pressure: 30.09"   Gusts: 16mph
Location:  43.31°N, 83.18°W
Report Text: KCFS 221535Z AUTO 14009G14KT 7SM CLR 01/M04 A3009 RMK AO2 T00051037
Loading
Personal Weather Stations






























Interactive Weather Map New forecast layout! Learn more

10-Day Weather Forecast

Advertisements
Track Severe Weather on mobile